Time;durP1;ratioP1;P1;durP2;ratioP2;P2;SDS_P1;SDS_P2;PMS_P1;PMS_P2;Temp;Humidity;BMP_temperature;BMP_pressure;BME280_temperature;BME280_humidity;BME280_pressure;Samples;Min_cycle;Max_cycle;Signal;HPM_P1;HPM_P2
2021/01/15 00:01:23;;;;;;;12.67;9.10;;;;;;;3.75;74.02;96245.88;5015356;28;20248;-54
2021/01/15 00:03:49;;;;;;;11.87;9.10;;;;;;;3.73;73.66;96234.84;5014555;28;20222;-53
2021/01/15 00:06:21;;;;;;;12.33;8.93;;;;;;;3.71;74.05;96236.06;5015135;28;20406;-55
2021/01/15 00:08:46;;;;;;;12.47;10.10;;;;;;;3.60;73.52;96247.75;5014693;28;20440;-55
2021/01/15 00:11:22;;;;;;;11.60;10.40;;;;;;;3.60;74.31;96246.94;5003656;28;20916;-53
2021/01/15 00:13:48;;;;;;;12.20;9.57;;;;;;;3.66;74.00;96248.81;5003646;28;20186;-55
2021/01/15 00:16:21;;;;;;;11.10;9.43;;;;;;;3.55;74.45;96251.88;5018711;28;20410;-53
2021/01/15 00:18:48;;;;;;;11.03;9.30;;;;;;;3.58;75.02;96260.09;5029196;28;20188;-54
2021/01/15 00:21:33;;;;;;;11.20;9.80;;;;;;;3.62;74.60;96248.38;5015070;28;20406;-53
2021/01/15 00:24:05;;;;;;;11.70;10.17;;;;;;;3.62;74.17;96250.16;5013352;28;20455;-54
2021/01/15 00:26:32;;;;;;;11.57;10.00;;;;;;;3.66;74.62;96249.59;4997840;28;20457;-54
2021/01/15 00:28:57;;;;;;;11.27;9.40;;;;;;;3.67;74.15;96261.59;5027249;28;20425;-54
2021/01/15 00:31:44;;;;;;;10.60;9.40;;;;;;;3.66;73.80;96259.19;5013161;28;20473;-54
2021/01/15 00:34:15;;;;;;;11.77;9.70;;;;;;;3.71;73.74;96264.63;5014270;28;20213;-53
2021/01/15 00:36:44;;;;;;;11.50;9.53;;;;;;;3.69;73.95;96269.19;5014449;28;20447;-54
2021/01/15 00:39:13;;;;;;;11.67;9.47;;;;;;;3.68;73.54;96259.78;5014515;28;20413;-54
2021/01/15 00:41:39;;;;;;;11.80;9.77;;;;;;;3.71;73.60;96260.25;5015209;28;20410;-53
2021/01/15 00:44:06;;;;;;;13.10;9.90;;;;;;;3.72;73.57;96253.22;5014007;28;20434;-53
2021/01/15 00:46:32;;;;;;;11.93;9.50;;;;;;;3.73;73.11;96260.84;5010720;28;20194;-54
2021/01/15 00:49:08;;;;;;;13.17;9.27;;;;;;;3.65;72.97;96258.38;4995672;28;20784;-53
2021/01/15 00:51:37;;;;;;;10.37;9.20;;;;;;;3.68;72.95;96264.97;4994603;28;20412;-53
2021/01/15 00:54:04;;;;;;;11.27;9.00;;;;;;;3.66;72.74;96266.97;4994270;28;20427;-53
2021/01/15 00:56:29;;;;;;;11.90;9.30;;;;;;;3.50;72.10;96259.41;4994691;28;20456;-55
2021/01/15 00:58:55;;;;;;;10.97;9.23;;;;;;;3.47;73.17;96260.59;4994374;28;20775;-55
2021/01/15 01:01:22;;;;;;;9.13;8.23;;;;;;;3.58;72.53;96261.91;5011580;28;20173;-52
2021/01/15 01:03:48;;;;;;;11.00;9.37;;;;;;;3.62;72.42;96268.34;5001201;28;20729;-54
2021/01/15 01:06:16;;;;;;;9.60;8.50;;;;;;;3.58;72.12;96267.91;5013746;28;20441;-53
2021/01/15 01:08:42;;;;;;;8.93;8.03;;;;;;;3.54;72.13;96265.84;5013698;28;20498;-53
2021/01/15 01:11:19;;;;;;;9.43;7.90;;;;;;;3.55;71.93;96272.66;5010253;28;20839;-54
2021/01/15 01:13:49;;;;;;;9.50;7.97;;;;;;;3.46;72.11;96271.94;5013248;28;20826;-53
2021/01/15 01:16:15;;;;;;;8.27;7.37;;;;;;;3.35;72.40;96269.03;5013399;28;20420;-55
2021/01/15 01:18:42;;;;;;;10.57;8.27;;;;;;;3.44;71.94;96275.75;5013871;28;20506;-54
2021/01/15 01:21:07;;;;;;;10.37;8.03;;;;;;;3.49;71.89;96276.78;5013787;28;20487;-55
2021/01/15 01:23:33;;;;;;;8.30;6.87;;;;;;;3.55;71.67;96281.22;4993978;28;20925;-55
2021/01/15 01:25:58;;;;;;;9.50;7.67;;;;;;;3.46;71.40;96286.75;4994195;28;20181;-55
2021/01/15 01:28:24;;;;;;;10.00;7.30;;;;;;;3.46;71.17;96282.34;5002078;28;20192;-53
2021/01/15 01:30:49;;;;;;;9.73;7.70;;;;;;;3.48;71.04;96285.56;5012687;28;20189;-54
2021/01/15 01:33:15;;;;;;;8.37;6.63;;;;;;;3.41;70.92;96287.28;5012992;28;20166;-53
2021/01/15 01:35:40;;;;;;;8.57;7.40;;;;;;;3.40;71.52;96285.69;5013268;28;20172;-55
2021/01/15 01:38:06;;;;;;;7.33;6.17;;;;;;;3.39;71.16;96291.84;5013450;28;20305;-55
2021/01/15 01:40:31;;;;;;;10.43;6.47;;;;;;;3.46;70.63;96286.75;5013335;28;20203;-54
2021/01/15 01:42:56;;;;;;;7.90;6.80;;;;;;;3.44;70.54;96286.94;5002963;28;20190;-54
2021/01/15 01:45:22;;;;;;;6.83;6.23;;;;;;;3.51;70.08;96292.19;5013058;28;20209;-54
2021/01/15 01:47:47;;;;;;;6.37;5.77;;;;;;;3.43;70.21;96287.09;5013571;28;20199;-53
2021/01/15 01:50:13;;;;;;;6.63;5.80;;;;;;;3.49;70.26;96287.19;5013598;28;20177;-55
2021/01/15 01:52:40;;;;;;;6.50;5.90;;;;;;;3.57;70.08;96297.44;5013686;28;20500;-55
2021/01/15 01:55:06;;;;;;;6.40;5.27;;;;;;;3.60;69.49;96291.91;5012229;28;20830;-55
2021/01/15 01:57:33;;;;;;;5.93;5.13;;;;;;;3.59;69.65;96300.66;5004834;28;20667;-53
2021/01/15 01:59:59;;;;;;;5.90;5.30;;;;;;;3.58;69.11;96300.84;5005975;28;20173;-54
2021/01/15 02:02:24;;;;;;;6.50;5.90;;;;;;;3.54;69.21;96300.41;5012081;28;20934;-55
2021/01/15 02:04:49;;;;;;;6.47;5.40;;;;;;;3.58;69.37;96309.47;5013321;28;20187;-53
2021/01/15 02:07:16;;;;;;;5.63;4.97;;;;;;;3.58;69.04;96306.03;5013533;28;20164;-53
2021/01/15 02:09:46;;;;;;;5.63;4.83;;;;;;;3.56;69.06;96306.22;5013616;28;20171;-53
2021/01/15 02:12:21;;;;;;;6.17;4.53;;;;;;;3.46;68.62;96310.91;5010631;28;20417;-53
2021/01/15 02:15:03;;;;;;;4.77;4.20;;;;;;;3.51;67.71;96313.78;5012774;28;20837;-53
2021/01/15 02:17:34;;;;;;;5.67;4.43;;;;;;;3.51;67.73;96318.16;5007788;28;20996;-55
2021/01/15 02:20:02;;;;;;;5.77;4.97;;;;;;;3.53;67.82;96313.59;4993922;28;20410;-54
2021/01/15 02:22:36;;;;;;;4.77;3.83;;;;;;;3.56;67.41;96318.41;4993513;28;20958;-54
2021/01/15 02:25:01;;;;;;;5.23;4.47;;;;;;;3.60;67.73;96323.06;5004027;28;20499;-54
2021/01/15 02:27:48;;;;;;;4.13;3.80;;;;;;;3.43;67.26;96321.66;5013361;28;20903;-54
2021/01/15 02:30:40;;;;;;;7.10;4.90;;;;;;;3.49;67.47;96320.13;5013402;28;20532;-55
2021/01/15 02:33:39;;;;;;;5.20;4.27;;;;;;;3.47;67.49;96322.91;5012204;28;20428;-53
2021/01/15 02:36:14;;;;;;;5.20;4.77;;;;;;;3.44;68.06;96335.47;5013313;28;20388;-53
2021/01/15 02:38:52;;;;;;;7.40;3.90;;;;;;;3.43;67.47;96332.03;5012373;28;20421;-53
2021/01/15 02:41:22;;;;;;;4.30;3.50;;;;;;;3.40;67.93;96332.41;5012387;28;20464;-55
2021/01/15 02:43:50;;;;;;;4.37;3.97;;;;;;;3.42;67.62;96325.25;5012708;28;20425;-54
2021/01/15 02:46:22;;;;;;;4.63;4.13;;;;;;;3.42;67.88;96333.03;5014732;28;20431;-53
2021/01/15 02:48:50;;;;;;;3.93;3.30;;;;;;;3.37;67.31;96337.16;5016844;28;20401;-54
2021/01/15 02:51:16;;;;;;;4.20;3.80;;;;;;;3.39;67.21;96341.19;5016685;28;20417;-55
2021/01/15 02:53:42;;;;;;;5.70;3.90;;;;;;;3.38;67.63;96334.38;5011945;28;20453;-55
2021/01/15 02:56:08;;;;;;;4.60;3.17;;;;;;;3.29;67.94;96325.09;5016568;28;20171;-55
2021/01/15 02:58:33;;;;;;;3.93;3.53;;;;;;;3.28;67.67;96327.88;5016222;28;20813;-53
2021/01/15 03:00:59;;;;;;;3.70;3.27;;;;;;;3.19;67.97;96334.94;5016577;28;20202;-53
2021/01/15 03:03:31;;;;;;;3.73;3.43;;;;;;;3.22;68.15;96336.38;5016557;28;20265;-53
2021/01/15 03:06:06;;;;;;;3.63;3.30;;;;;;;2.99;68.80;96339.88;5015968;28;20175;-55
2021/01/15 03:08:33;;;;;;;3.40;3.10;;;;;;;3.06;68.24;96347.75;5014068;28;20417;-53
2021/01/15 03:11:03;;;;;;;4.07;3.67;;;;;;;3.08;68.45;96335.38;5016323;28;20493;-54
2021/01/15 03:13:34;;;;;;;4.03;3.70;;;;;;;3.09;68.35;96337.81;5014977;28;20437;-54
2021/01/15 03:16:02;;;;;;;3.70;3.23;;;;;;;3.17;68.20;96341.31;5016307;28;20415;-55
2021/01/15 03:18:29;;;;;;;4.83;3.87;;;;;;;3.01;67.96;96337.09;5016194;28;20516;-53
2021/01/15 03:20:55;;;;;;;3.87;3.60;;;;;;;3.05;68.11;96341.75;5016117;28;20437;-53
2021/01/15 03:23:20;;;;;;;4.70;4.23;;;;;;;3.06;68.35;96347.75;5015041;28;20792;-54
2021/01/15 03:25:46;;;;;;;3.60;3.30;;;;;;;3.08;68.30;96337.97;5015945;28;20178;-54
2021/01/15 03:28:11;;;;;;;4.43;3.60;;;;;;;3.11;67.97;96350.63;5014159;28;20572;-53
2021/01/15 03:30:37;;;;;;;5.10;4.00;;;;;;;3.06;67.85;96350.34;4999436;28;20180;-54
2021/01/15 03:33:04;;;;;;;3.63;3.33;;;;;;;3.07;67.31;96346.75;5012903;28;20590;-54
2021/01/15 03:35:32;;;;;;;5.23;3.27;;;;;;;3.06;67.63;96350.34;5015263;28;20281;-54
2021/01/15 03:38:04;;;;;;;3.47;3.17;;;;;;;3.04;67.75;96352.31;4996171;28;20444;-54
2021/01/15 03:40:32;;;;;;;6.43;3.63;;;;;;;2.92;67.98;96361.50;4994802;28;20502;-53
2021/01/15 03:42:58;;;;;;;3.40;3.10;;;;;;;2.73;68.79;96362.84;4996248;28;20429;-54
2021/01/15 03:45:25;;;;;;;5.27;3.60;;;;;;;2.76;68.79;96359.09;4995757;28;20450;-55
2021/01/15 03:47:51;;;;;;;4.03;3.57;;;;;;;2.79;68.62;96369.13;4997035;28;20423;-55
2021/01/15 03:50:16;;;;;;;4.40;3.17;;;;;;;2.68;69.15;96372.16;4997652;28;20436;-55
2021/01/15 03:52:42;;;;;;;3.87;3.57;;;;;;;2.56;69.79;96365.75;4995374;28;20174;-55
2021/01/15 03:55:08;;;;;;;4.07;3.63;;;;;;;2.65;69.46;96372.47;4995628;28;20201;-55
2021/01/15 03:57:34;;;;;;;4.10;3.60;;;;;;;2.46;69.39;96368.63;4995574;28;20248;-53
2021/01/15 04:00:01;;;;;;;3.70;3.17;;;;;;;2.55;69.28;96364.16;4995753;28;20410;-53
2021/01/15 04:02:27;;;;;;;6.07;3.60;;;;;;;2.60;69.12;96367.03;4995601;28;20184;-53
2021/01/15 04:04:52;;;;;;;3.23;3.03;;;;;;;2.62;68.46;96371.06;5006143;28;20484;-55
2021/01/15 04:07:18;;;;;;;3.50;3.20;;;;;;;2.65;68.50;96378.47;5015261;28;20166;-54
2021/01/15 04:09:45;;;;;;;3.87;3.10;;;;;;;2.36;69.25;96378.41;5014009;28;20617;-54
2021/01/15 04:12:11;;;;;;;3.30;3.00;;;;;;;2.27;69.58;96389.81;5015205;28;20422;-54
2021/01/15 04:14:38;;;;;;;5.77;3.93;;;;;;;2.35;69.66;96386.38;5013936;28;20939;-53
2021/01/15 04:17:03;;;;;;;4.27;3.40;;;;;;;2.29;69.99;96387.88;5014569;28;20458;-53
2021/01/15 04:19:29;;;;;;;4.47;3.60;;;;;;;2.36;69.66;96391.38;5014948;28;20432;-55
2021/01/15 04:21:54;;;;;;;3.80;3.50;;;;;;;2.28;69.39;96386.25;5014953;28;20181;-53
2021/01/15 04:24:20;;;;;;;3.80;3.40;;;;;;;2.07;69.45;96389.47;5013910;28;20284;-53
2021/01/15 04:26:51;;;;;;;3.70;3.27;;;;;;;2.12;69.96;96396.72;5014779;28;20574;-53
2021/01/15 04:29:16;;;;;;;4.27;3.43;;;;;;;2.11;69.34;96405.47;5014659;28;20196;-54
2021/01/15 04:31:41;;;;;;;3.43;3.13;;;;;;;1.98;69.94;96413.00;5014433;28;20447;-55
2021/01/15 04:34:07;;;;;;;3.33;3.07;;;;;;;1.99;70.62;96407.66;5000989;28;20240;-53
2021/01/15 04:36:35;;;;;;;5.30;3.40;;;;;;;2.02;69.39;96409.91;4994351;28;20248;-53
2021/01/15 04:39:00;;;;;;;4.50;3.37;;;;;;;2.10;69.13;96416.84;4995185;28;20182;-55
2021/01/15 04:41:26;;;;;;;5.63;3.63;;;;;;;2.12;69.34;96416.66;4994891;28;20803;-55
2021/01/15 04:43:55;;;;;;;3.90;3.60;;;;;;;2.20;69.39;96414.00;4994674;28;20209;-53
2021/01/15 04:46:24;;;;;;;4.50;4.10;;;;;;;2.13;68.93;96421.66;5012715;28;20424;-55
2021/01/15 04:48:51;;;;;;;4.97;3.80;;;;;;;2.08;69.04;96424.75;5014105;28;20407;-54
2021/01/15 04:51:22;;;;;;;3.83;3.53;;;;;;;2.13;69.27;96419.06;5014377;28;20410;-53
2021/01/15 04:54:17;;;;;;;3.67;3.37;;;;;;;2.15;69.50;96426.66;5013879;28;20438;-54
2021/01/15 04:56:54;;;;;;;4.30;3.80;;;;;;;1.97;69.01;96427.75;5012530;28;20550;-55
2021/01/15 04:59:21;;;;;;;3.83;3.53;;;;;;;1.95;69.76;96441.84;5009825;28;20901;-54
2021/01/15 05:01:49;;;;;;;3.87;3.57;;;;;;;1.83;69.48;96423.28;5001616;28;20486;-53
2021/01/15 05:04:16;;;;;;;4.00;3.60;;;;;;;1.84;70.52;96435.28;4994281;28;20447;-53
2021/01/15 05:06:52;;;;;;;5.23;4.10;;;;;;;1.92;69.76;96431.84;4994878;28;20918;-55
2021/01/15 05:09:24;;;;;;;6.53;4.43;;;;;;;1.91;70.36;96436.22;4993903;28;20416;-53
2021/01/15 05:11:52;;;;;;;6.43;4.17;;;;;;;1.90;69.80;96442.34;4994355;28;20495;-53
2021/01/15 05:14:20;;;;;;;4.80;4.00;;;;;;;1.90;69.84;96441.56;5001780;28;20444;-53
2021/01/15 05:16:49;;;;;;;6.10;4.43;;;;;;;1.93;70.16;96454.16;5013203;28;20463;-55
2021/01/15 05:19:15;;;;;;;7.23;5.00;;;;;;;1.97;69.70;96450.25;5014088;28;20407;-53
2021/01/15 05:21:41;;;;;;;4.77;4.37;;;;;;;1.83;69.79;96444.00;5013671;28;20902;-53
2021/01/15 05:24:09;;;;;;;5.00;4.20;;;;;;;1.82;70.97;96450.19;5013436;28;20454;-54
2021/01/15 05:26:38;;;;;;;7.00;4.83;;;;;;;1.84;70.29;96455.19;5013982;28;20414;-53
2021/01/15 05:29:07;;;;;;;8.00;4.93;;;;;;;1.80;70.66;96452.13;5013605;28;20416;-54
2021/01/15 05:31:52;;;;;;;5.50;4.37;;;;;;;1.80;70.91;96459.06;5005034;28;20428;-53
2021/01/15 05:34:19;;;;;;;6.50;5.10;;;;;;;1.84;70.69;96461.16;5012183;28;20463;-54
2021/01/15 05:36:45;;;;;;;6.50;5.27;;;;;;;1.82;70.89;96457.94;5013703;28;20460;-54
2021/01/15 05:39:19;;;;;;;5.23;4.83;;;;;;;1.84;70.18;96468.94;5013611;28;20434;-54
2021/01/15 05:41:46;;;;;;;5.27;4.77;;;;;;;1.78;70.82;96484.31;5013732;28;20169;-53
2021/01/15 05:44:24;;;;;;;6.07;5.03;;;;;;;1.57;71.86;96484.09;5013086;28;20427;-55
2021/01/15 05:46:50;;;;;;;5.57;5.07;;;;;;;1.50;71.28;96489.13;5013655;28;20766;-53
2021/01/15 05:49:15;;;;;;;7.03;5.20;;;;;;;1.51;71.56;96482.97;5012653;28;20482;-53
2021/01/15 05:51:42;;;;;;;5.63;5.13;;;;;;;1.45;71.62;96483.63;5013516;28;20212;-55
2021/01/15 05:54:09;;;;;;;5.67;5.17;;;;;;;1.43;72.69;96489.97;5013248;28;20235;-54
2021/01/15 05:56:39;;;;;;;6.57;5.47;;;;;;;1.41;72.54;96495.31;5013083;28;20551;-53
2021/01/15 05:59:10;;;;;;;6.77;4.83;;;;;;;1.47;71.63;96497.22;5013318;28;20431;-54
2021/01/15 06:01:53;;;;;;;6.10;5.50;;;;;;;1.36;72.04;96494.19;5012837;28;20413;-54
2021/01/15 06:04:31;;;;;;;7.80;5.70;;;;;;;1.36;72.85;96502.75;5011193;28;20439;-53
2021/01/15 06:06:57;;;;;;;6.50;5.90;;;;;;;1.37;72.37;96509.56;5013338;28;20426;-54
2021/01/15 06:09:22;;;;;;;5.93;5.43;;;;;;;1.43;72.48;96518.44;5011350;28;21000;-54
2021/01/15 06:11:49;;;;;;;8.57;5.73;;;;;;;1.39;72.46;96514.56;5013429;28;20445;-55
2021/01/15 06:14:24;;;;;;;6.50;5.00;;;;;;;1.44;72.40;96526.03;5012847;28;20220;-54
2021/01/15 06:17:01;;;;;;;5.73;5.20;;;;;;;1.42;71.51;96534.91;5013000;28;20802;-54
2021/01/15 06:19:41;;;;;;;5.30;4.80;;;;;;;1.18;72.50;96530.59;5013206;28;20419;-53
2021/01/15 06:22:09;;;;;;;6.10;5.47;;;;;;;1.32;72.89;96534.31;5015531;28;20473;-53
2021/01/15 06:24:38;;;;;;;5.50;4.83;;;;;;;1.43;71.88;96544.31;5014769;28;20439;-54
2021/01/15 06:27:08;;;;;;;6.20;4.60;;;;;;;1.47;72.35;96543.81;5017140;28;20807;-53
2021/01/15 06:29:44;;;;;;;6.37;4.90;;;;;;;1.60;71.05;96551.88;5016587;28;20404;-53
2021/01/15 06:32:10;;;;;;;6.07;5.53;;;;;;;1.58;71.16;96553.00;4998482;28;20421;-53
2021/01/15 06:34:46;;;;;;;5.30;4.80;;;;;;;1.53;71.55;96557.88;5016080;28;20435;-55
2021/01/15 06:37:17;;;;;;;5.77;5.17;;;;;;;1.65;70.52;96557.34;5016872;28;20550;-53
2021/01/15 06:40:00;;;;;;;6.97;6.37;;;;;;;1.59;71.28;96559.81;5016975;28;20833;-54
2021/01/15 06:42:29;;;;;;;5.83;5.23;;;;;;;1.52;71.44;96564.81;5016628;28;20408;-54
2021/01/15 06:44:55;;;;;;;5.57;5.00;;;;;;;1.54;71.38;96564.69;5015579;28;20443;-53
2021/01/15 06:47:22;;;;;;;7.50;5.40;;;;;;;1.49;70.98;96561.75;5016787;28;20486;-54
2021/01/15 06:49:49;;;;;;;6.93;5.80;;;;;;;1.53;70.98;96573.41;5016648;28;20180;-54
2021/01/15 06:52:25;;;;;;;9.17;5.43;;;;;;;1.50;71.81;96577.16;5016624;28;20451;-53
2021/01/15 06:54:54;;;;;;;6.00;5.40;;;;;;;1.53;71.16;96573.41;5015804;28;20447;-53
2021/01/15 06:57:25;;;;;;;7.27;5.60;;;;;;;1.47;70.99;96581.84;5016460;28;20451;-53
2021/01/15 06:59:54;;;;;;;6.20;5.00;;;;;;;1.38;71.43;96586.19;5015659;28;20941;-53
2021/01/15 07:02:29;;;;;;;6.37;5.00;;;;;;;1.47;70.64;96589.59;5016430;28;20412;-52
2021/01/15 07:05:02;;;;;;;6.93;5.23;;;;;;;1.46;70.85;96593.16;5016407;28;20427;-53
2021/01/15 07:07:31;;;;;;;5.67;5.13;;;;;;;1.17;71.15;96595.44;5015730;28;20478;-53
2021/01/15 07:10:01;;;;;;;4.83;4.43;;;;;;;1.08;72.19;96596.41;5015680;28;20438;-54
2021/01/15 07:12:27;;;;;;;7.50;5.77;;;;;;;1.05;72.38;96598.34;5015265;28;20450;-54
2021/01/15 07:14:56;;;;;;;7.33;6.00;;;;;;;1.07;72.14;96603.34;5015836;28;20463;-54
2021/01/15 07:17:35;;;;;;;5.90;5.30;;;;;;;1.16;71.36;96606.75;5016520;28;20205;-54
2021/01/15 07:20:09;;;;;;;8.40;5.70;;;;;;;1.12;71.91;96608.03;5015329;28;20420;-53
2021/01/15 07:22:48;;;;;;;6.87;6.17;;;;;;;1.13;72.06;96613.06;5015762;28;20415;-54
2021/01/15 07:25:14;;;;;;;8.40;5.60;;;;;;;1.07;71.21;96602.56;5015729;28;20419;-54
2021/01/15 07:27:41;;;;;;;6.00;5.40;;;;;;;1.02;71.38;96611.59;5015501;28;20426;-54
2021/01/15 07:30:23;;;;;;;6.40;5.80;;;;;;;0.85;72.71;96609.16;5015909;28;20411;-53
2021/01/15 07:32:53;;;;;;;6.43;5.70;;;;;;;0.89;72.40;96615.59;5014946;28;20412;-53
2021/01/15 07:35:21;;;;;;;6.00;5.23;;;;;;;0.72;73.08;96619.97;5014354;28;20875;-53
2021/01/15 07:37:46;;;;;;;5.67;5.07;;;;;;;0.78;72.85;96621.09;5015511;28;20463;-54
2021/01/15 07:40:15;;;;;;;7.87;6.03;;;;;;;0.92;72.68;96618.69;5002866;28;20435;-53
2021/01/15 07:42:42;;;;;;;5.90;5.30;;;;;;;1.07;72.45;96625.84;5012533;28;20176;-54
2021/01/15 07:45:08;;;;;;;8.50;5.80;;;;;;;1.12;71.94;96629.56;5015235;28;20937;-53
2021/01/15 07:47:37;;;;;;;6.47;5.57;;;;;;;1.12;72.76;96628.75;5015614;28;20416;-54
2021/01/15 07:50:05;;;;;;;8.07;5.80;;;;;;;1.17;72.26;96640.22;5015554;28;20772;-53
2021/01/15 07:52:31;;;;;;;6.47;5.77;;;;;;;1.28;71.69;96641.69;5014690;28;20430;-54
2021/01/15 07:55:06;;;;;;;8.30;6.33;;;;;;;1.29;71.95;96649.28;5013524;28;20953;-55
2021/01/15 07:57:32;;;;;;;10.40;6.37;;;;;;;1.39;70.99;96639.59;5015651;28;20206;-54
2021/01/15 08:00:24;;;;;;;8.27;6.43;;;;;;;1.50;71.48;96656.56;5015450;28;20424;-55
2021/01/15 08:02:58;;;;;;;6.93;5.83;;;;;;;1.46;70.89;96653.50;5006869;28;20915;-54
2021/01/15 08:05:23;;;;;;;8.13;6.20;;;;;;;1.47;71.61;96657.69;4995702;28;20443;-54
2021/01/15 08:07:48;;;;;;;8.17;6.50;;;;;;;1.56;71.09;96661.09;4995544;28;20429;-53
2021/01/15 08:10:23;;;;;;;6.60;5.90;;;;;;;1.60;71.30;96662.38;5007959;28;20176;-52
2021/01/15 08:12:49;;;;;;;9.50;6.80;;;;;;;1.73;70.71;96670.47;5014167;28;20646;-53
2021/01/15 08:15:31;;;;;;;8.47;7.30;;;;;;;1.75;70.19;96671.94;5002832;28;20482;-54
2021/01/15 08:18:01;;;;;;;8.93;6.57;;;;;;;1.89;69.65;96680.81;5014843;28;20205;-53
2021/01/15 08:20:26;;;;;;;7.63;5.97;;;;;;;1.95;69.81;96675.78;5015148;28;20412;-53
2021/01/15 08:22:52;;;;;;;8.60;6.70;;;;;;;1.92;69.45;96683.88;5014212;28;20427;-53
2021/01/15 08:25:27;;;;;;;7.53;6.80;;;;;;;1.97;69.82;96686.00;5014199;28;20202;-54
2021/01/15 08:27:54;;;;;;;7.13;6.43;;;;;;;1.95;70.03;96687.94;5024256;28;20662;-52
2021/01/15 08:30:20;;;;;;;8.37;7.43;;;;;;;2.04;69.43;96694.72;5034403;28;20412;-54
2021/01/15 08:32:46;;;;;;;7.03;6.27;;;;;;;2.10;69.03;96701.84;5034438;28;20422;-55
2021/01/15 08:35:33;;;;;;;9.07;8.13;;;;;;;2.16;69.43;96703.75;5025420;28;20962;-52
2021/01/15 08:37:59;;;;;;;8.60;7.40;;;;;;;2.25;69.10;96710.53;5014702;28;20309;-54
2021/01/15 08:40:30;;;;;;;11.23;7.20;;;;;;;2.26;69.23;96716.53;5014697;28;20436;-53
2021/01/15 08:42:57;;;;;;;8.67;7.67;;;;;;;2.33;68.25;96717.50;5012077;28;20481;-54
2021/01/15 08:45:27;;;;;;;9.83;8.00;;;;;;;2.45;68.37;96718.75;5013736;28;20918;-54
2021/01/15 08:47:55;;;;;;;9.57;7.80;;;;;;;2.47;68.41;96727.16;5009537;28;20431;-53
2021/01/15 08:50:22;;;;;;;10.23;7.43;;;;;;;2.45;67.99;96729.94;4996802;28;20441;-54
2021/01/15 08:52:48;;;;;;;10.57;7.90;;;;;;;2.53;68.04;96729.91;5014139;28;20408;-53
2021/01/15 08:55:15;;;;;;;13.13;9.03;;;;;;;2.52;67.68;96727.50;5014108;28;20488;-62
2021/01/15 08:57:40;;;;;;;8.77;7.77;;;;;;;2.61;67.60;96742.06;5014219;28;20821;-57
2021/01/15 09:00:10;;;;;;;9.27;7.67;;;;;;;2.63;67.67;96740.91;5014383;28;20494;-57
2021/01/15 09:02:38;;;;;;;9.13;7.30;;;;;;;2.65;67.10;96751.09;5009436;28;20226;-56
2021/01/15 09:05:09;;;;;;;10.73;7.37;;;;;;;2.70;67.18;96749.63;5010812;28;20448;-56
2021/01/15 09:07:45;;;;;;;9.87;8.47;;;;;;;2.67;67.04;96743.97;5008877;28;20423;-56
2021/01/15 09:10:12;;;;;;;8.03;7.23;;;;;;;2.61;66.90;96753.22;5010682;28;20781;-56
2021/01/15 09:12:43;;;;;;;10.87;8.30;;;;;;;2.68;66.66;96750.78;5010148;28;20800;-56
2021/01/15 09:15:20;;;;;;;8.30;7.43;;;;;;;2.70;66.64;96760.00;5010384;28;20440;-56
2021/01/15 09:17:47;;;;;;;12.00;8.80;;;;;;;2.74;66.63;96763.06;5001977;28;20787;-56
2021/01/15 09:20:14;;;;;;;9.47;8.10;;;;;;;2.89;66.45;96769.19;4990840;28;20887;-56
2021/01/15 09:22:39;;;;;;;11.00;8.33;;;;;;;2.99;66.16;96764.59;4990485;28;20448;-55
2021/01/15 09:25:05;;;;;;;10.30;8.50;;;;;;;3.26;65.79;96766.75;4990670;28;20444;-56
2021/01/15 09:27:30;;;;;;;9.93;8.13;;;;;;;3.53;64.39;96768.06;4990784;28;20208;-57
2021/01/15 09:29:56;;;;;;;8.57;7.60;;;;;;;3.63;63.66;96764.25;4990209;28;20450;-56
2021/01/15 09:32:21;;;;;;;11.50;8.23;;;;;;;4.00;62.92;96769.50;5005997;28;20651;-63
2021/01/15 09:34:46;;;;;;;8.00;7.20;;;;;;;4.44;60.62;96769.59;5006727;28;20236;-54
2021/01/15 09:37:12;;;;;;;8.73;7.77;;;;;;;4.78;60.09;96772.50;5010081;28;20238;-55
2021/01/15 09:39:37;;;;;;;10.80;8.10;;;;;;;5.18;58.31;96769.44;5009671;28;20182;-70
2021/01/15 09:42:03;;;;;;;10.50;8.60;;;;;;;5.57;57.08;96779.50;4995938;28;20190;-55
2021/01/15 09:44:29;;;;;;;8.93;7.83;;;;;;;5.90;55.78;96778.09;4998592;28;20296;-55
2021/01/15 09:47:03;;;;;;;11.17;7.87;;;;;;;5.96;54.86;96784.38;5004031;28;20530;-55
2021/01/15 09:49:31;;;;;;;7.30;6.60;;;;;;;6.25;53.44;96782.41;5008064;28;20489;-55
2021/01/15 09:51:56;;;;;;;10.00;8.10;;;;;;;6.49;52.62;96783.78;5010039;28;20897;-55
2021/01/15 09:54:22;;;;;;;9.07;7.83;;;;;;;6.45;52.41;96782.56;4995056;28;20644;-54
2021/01/15 09:56:47;;;;;;;9.90;8.10;;;;;;;6.30;52.18;96783.66;4992988;28;20284;-54
2021/01/15 09:59:17;;;;;;;7.77;7.07;;;;;;;6.78;51.67;96791.44;4994511;28;20188;-55
2021/01/15 10:01:43;;;;;;;10.70;7.50;;;;;;;7.43;50.61;96795.41;5011408;28;20172;-56
2021/01/15 10:04:09;;;;;;;8.07;6.77;;;;;;;8.19;48.07;96793.19;5013551;28;20428;-55
2021/01/15 10:06:38;;;;;;;10.20;7.30;;;;;;;8.83;46.24;96789.97;5013577;28;20416;-57
2021/01/15 10:09:05;;;;;;;8.60;7.67;;;;;;;9.05;44.56;96793.97;5015623;28;20175;-57
2021/01/15 10:11:34;;;;;;;9.73;7.50;;;;;;;9.53;44.15;96795.22;5017481;28;20498;-53
2021/01/15 10:14:02;;;;;;;9.07;8.17;;;;;;;9.25;44.32;96797.34;5012080;28;21038;-57
2021/01/15 10:16:28;;;;;;;9.77;7.90;;;;;;;8.20;46.62;96801.84;5016619;28;20419;-56
2021/01/15 10:18:54;;;;;;;9.90;8.67;;;;;;;7.65;47.87;96809.94;4997731;28;20405;-54
2021/01/15 10:21:26;;;;;;;9.23;8.03;;;;;;;7.15;49.28;96811.16;4993535;28;20243;-55
2021/01/15 10:23:51;;;;;;;9.50;8.17;;;;;;;6.68;50.82;96811.06;4993659;28;20428;-57
2021/01/15 10:26:25;;;;;;;8.73;7.90;;;;;;;6.35;50.98;96810.78;4994036;28;20416;-56
2021/01/15 10:28:56;;;;;;;11.93;8.37;;;;;;;5.65;52.69;96812.47;5002111;28;20254;-57
2021/01/15 10:31:25;;;;;;;8.57;7.70;;;;;;;5.46;53.23;96820.84;5000746;28;20428;-56
2021/01/15 10:33:51;;;;;;;12.10;7.87;;;;;;;5.38;54.44;96819.16;4993405;28;20785;-56
2021/01/15 10:36:16;;;;;;;10.03;8.43;;;;;;;5.38;55.06;96816.53;4993758;28;20415;-55
2021/01/15 10:38:42;;;;;;;12.73;8.03;;;;;;;5.06;55.49;96819.53;4996527;28;20479;-56
2021/01/15 10:41:08;;;;;;;10.13;7.50;;;;;;;5.27;55.43;96818.81;5012779;28;20187;-54
2021/01/15 10:43:33;;;;;;;11.97;7.63;;;;;;;5.58;54.66;96819.41;5011969;28;20451;-57
2021/01/15 10:45:59;;;;;;;9.13;8.00;;;;;;;5.40;54.09;96821.59;5013053;28;20246;-55
2021/01/15 10:48:24;;;;;;;9.37;8.47;;;;;;;5.60;53.61;96814.84;5013293;28;20215;-54
2021/01/15 10:50:49;;;;;;;9.40;8.50;;;;;;;5.61;54.21;96817.25;5012584;28;20202;-57
2021/01/15 10:53:15;;;;;;;10.40;7.93;;;;;;;5.36;54.82;96821.16;5012664;28;20203;-56
2021/01/15 10:55:40;;;;;;;9.07;8.17;;;;;;;5.30;55.62;96819.28;5012501;28;20634;-55
2021/01/15 10:58:06;;;;;;;9.50;8.30;;;;;;;5.38;54.97;96821.75;5012418;28;20220;-55
2021/01/15 11:00:31;;;;;;;10.60;8.53;;;;;;;5.13;55.98;96821.25;5001796;28;20226;-55
2021/01/15 11:02:57;;;;;;;10.30;8.37;;;;;;;5.14;56.49;96822.88;5007282;28;20267;-54
2021/01/15 11:05:22;;;;;;;9.87;8.87;;;;;;;5.04;57.39;96821.50;5012938;28;20304;-53
2021/01/15 11:07:48;;;;;;;11.73;8.97;;;;;;;4.99;56.35;96818.66;5011466;28;20183;-57
2021/01/15 11:10:13;;;;;;;11.67;8.40;;;;;;;4.91;56.02;96831.78;5011563;28;20179;-57
2021/01/15 11:12:39;;;;;;;10.30;8.10;;;;;;;4.95;57.09;96822.59;5012578;28;20188;-54
2021/01/15 11:15:06;;;;;;;10.50;8.57;;;;;;;4.55;59.40;96828.22;5012815;28;20805;-56
2021/01/15 11:17:31;;;;;;;10.07;9.00;;;;;;;4.64;59.56;96832.38;5012361;28;20455;-56
2021/01/15 11:19:57;;;;;;;9.00;8.00;;;;;;;4.87;58.57;96826.09;5013591;28;20427;-56
2021/01/15 11:22:22;;;;;;;9.90;8.87;;;;;;;5.24;58.77;96833.81;5011456;28;20629;-53
2021/01/15 11:24:47;;;;;;;9.00;8.20;;;;;;;5.90;56.41;96827.63;5015509;28;20200;-52
2021/01/15 11:27:13;;;;;;;9.07;8.17;;;;;;;7.90;51.85;96818.91;5015922;28;20550;-54
2021/01/15 11:29:38;;;;;;;10.20;7.87;;;;;;;9.84;44.93;96815.47;5015213;28;20181;-54
2021/01/15 11:32:04;;;;;;;8.37;7.57;;;;;;;10.51;43.17;96814.91;5015967;28;20550;-54
2021/01/15 11:34:29;;;;;;;8.93;7.97;;;;;;;10.31;42.60;96815.84;5014762;28;20207;-55
2021/01/15 11:36:55;;;;;;;8.27;7.37;;;;;;;10.70;42.65;96816.56;5015849;28;20200;-55
2021/01/15 11:39:21;;;;;;;7.30;6.57;;;;;;;12.20;37.66;96812.28;5015194;28;20168;-56
2021/01/15 11:41:54;;;;;;;7.53;6.83;;;;;;;13.96;35.10;96803.09;5015151;28;20209;-55
2021/01/15 11:44:19;;;;;;;7.90;7.20;;;;;;;15.63;32.72;96802.09;5014967;28;20208;-56
2021/01/15 11:46:45;;;;;;;9.80;8.90;;;;;;;17.41;30.23;96795.25;5014590;28;20477;-55